createdAt,value
2022-12-31T00:01:14.906Z,100198.69
2022-12-31T00:03:43.427Z,100186.84
2022-12-31T00:06:32.310Z,100191.06
2022-12-31T00:09:02.069Z,100199.25
2022-12-31T00:11:30.831Z,100193.53
2022-12-31T00:13:58.872Z,100200.66
2022-12-31T00:16:29.836Z,100204.38
2022-12-31T00:18:59.241Z,100201.53
2022-12-31T00:21:28.831Z,100195.56
2022-12-31T00:23:56.735Z,100202.25
2022-12-31T00:26:26.833Z,100198.94
2022-12-31T00:28:56.150Z,100188.03
2022-12-31T00:31:29.005Z,100186.53
2022-12-31T00:33:57.715Z,100187.19
2022-12-31T00:36:31.180Z,100189.44
2022-12-31T00:39:00.465Z,100186.03
2022-12-31T00:41:29.040Z,100202.87
2022-12-31T00:43:57.115Z,100193.31
2022-12-31T00:46:25.504Z,100195.91
2022-12-31T00:48:53.235Z,100194.66
2022-12-31T00:51:23.066Z,100196.44
2022-12-31T00:53:51.020Z,100203.37
2022-12-31T00:56:21.080Z,100199.22
2022-12-31T00:58:49.264Z,100205.63
2022-12-31T01:01:23.132Z,100211.88
2022-12-31T01:03:53.017Z,100214.34
2022-12-31T01:06:21.466Z,100214.38
2022-12-31T01:08:49.891Z,100220.41
2022-12-31T01:11:17.994Z,100224.75
2022-12-31T01:13:50.984Z,100223.31
2022-12-31T01:16:32.585Z,100229.50
2022-12-31T01:19:02.648Z,100235.72
2022-12-31T01:21:30.441Z,100223.87
2022-12-31T01:23:59.085Z,100226.28
2022-12-31T01:26:28.042Z,100225.88
2022-12-31T01:28:55.970Z,100212.25
2022-12-31T01:31:24.481Z,100213.78
2022-12-31T01:33:52.988Z,100219.03
2022-12-31T01:36:26.809Z,100218.22
2022-12-31T01:39:03.600Z,100208.94
2022-12-31T01:41:34.683Z,100204.84
2022-12-31T01:44:11.423Z,100212.34
2022-12-31T01:46:44.186Z,100206.47
2022-12-31T01:49:21.291Z,100206.59
2022-12-31T01:51:52.516Z,100211.84
2022-12-31T01:54:20.445Z,100214.50
2022-12-31T01:56:48.507Z,100223.63
2022-12-31T01:59:17.772Z,100220.50
2022-12-31T02:01:45.816Z,100219.59
2022-12-31T02:04:14.376Z,100223.81
2022-12-31T02:06:45.939Z,100231.28
2022-12-31T02:09:14.005Z,100235.00
2022-12-31T02:11:41.743Z,100231.19
2022-12-31T02:14:31.799Z,100238.38
2022-12-31T02:17:11.575Z,100235.50
2022-12-31T02:20:04.296Z,100233.72
2022-12-31T02:22:51.270Z,100229.50
2022-12-31T02:25:40.446Z,100233.41
2022-12-31T02:28:20.093Z,100227.66
2022-12-31T02:30:56.233Z,100227.66
2022-12-31T02:33:30.729Z,100230.13
2022-12-31T02:36:02.412Z,100225.25
2022-12-31T02:38:33.838Z,100221.03
2022-12-31T02:41:03.134Z,100222.22
2022-12-31T02:43:31.932Z,100207.78
2022-12-31T02:46:21.525Z,100210.06
2022-12-31T02:48:54.226Z,100216.56
2022-12-31T02:51:44.247Z,100227.28
2022-12-31T02:54:41.448Z,100222.75
2022-12-31T02:57:49.565Z,100228.22
2022-12-31T03:00:17.981Z,100236.75
2022-12-31T03:02:47.006Z,100230.31
2022-12-31T03:05:16.208Z,100226.09
2022-12-31T03:07:44.760Z,100226.84
2022-12-31T03:10:12.419Z,100229.69
2022-12-31T03:12:41.823Z,100228.38
2022-12-31T03:15:10.784Z,100230.31
2022-12-31T03:17:38.709Z,100215.00
2022-12-31T03:20:06.959Z,100211.28
2022-12-31T03:22:37.629Z,100199.19
2022-12-31T03:25:11.380Z,100203.81
2022-12-31T03:27:39.485Z,100210.88
2022-12-31T03:30:07.780Z,100201.12
2022-12-31T03:32:35.575Z,100203.50
2022-12-31T03:35:04.279Z,100212.00
2022-12-31T03:37:31.989Z,100216.78
2022-12-31T03:40:00.570Z,100209.87
2022-12-31T03:42:28.517Z,100201.22
2022-12-31T03:44:56.081Z,100208.81
2022-12-31T03:47:23.847Z,100214.38
2022-12-31T03:49:51.813Z,100230.78
2022-12-31T03:52:19.693Z,100217.34
2022-12-31T03:54:47.375Z,100206.69
2022-12-31T03:57:15.681Z,100210.72
2022-12-31T03:59:43.516Z,100210.47
2022-12-31T04:02:11.541Z,100214.03
2022-12-31T04:04:39.544Z,100204.19
2022-12-31T04:07:07.293Z,100212.41
2022-12-31T04:09:34.957Z,100211.88
2022-12-31T04:12:03.162Z,100203.53
2022-12-31T04:14:30.829Z,100200.81
2022-12-31T04:16:58.536Z,100212.00
2022-12-31T04:19:26.403Z,100215.78
2022-12-31T04:21:53.997Z,100214.41
2022-12-31T04:24:21.697Z,100204.03
2022-12-31T04:26:49.913Z,100202.44
2022-12-31T04:29:17.750Z,100211.13
2022-12-31T04:31:46.621Z,100215.53
2022-12-31T04:34:14.612Z,100224.81
2022-12-31T04:36:42.227Z,100234.47
2022-12-31T04:39:10.094Z,100235.53
2022-12-31T04:41:38.053Z,100230.69
2022-12-31T04:44:05.778Z,100219.00
2022-12-31T04:46:33.874Z,100212.97
2022-12-31T04:49:02.019Z,100221.59
2022-12-31T04:51:30.616Z,100228.91
2022-12-31T04:53:58.520Z,100251.59
2022-12-31T04:56:27.587Z,100260.03
2022-12-31T04:58:55.698Z,100251.69
2022-12-31T05:01:23.716Z,100251.88
2022-12-31T05:03:51.706Z,100257.47
2022-12-31T05:06:21.276Z,100259.50
2022-12-31T05:08:49.493Z,100264.25
2022-12-31T05:11:17.992Z,100263.84
2022-12-31T05:13:45.689Z,100268.28
2022-12-31T05:16:13.486Z,100264.25
2022-12-31T05:18:41.537Z,100268.28
2022-12-31T05:21:10.419Z,100278.09
2022-12-31T05:23:38.471Z,100276.06
2022-12-31T05:26:06.443Z,100282.19
2022-12-31T05:28:34.126Z,100274.41
2022-12-31T05:31:02.126Z,100274.41
2022-12-31T05:33:30.208Z,100277.75
2022-12-31T05:35:57.862Z,100279.16
2022-12-31T05:38:26.026Z,100272.78
2022-12-31T05:41:04.773Z,100281.31
2022-12-31T05:43:32.527Z,100293.53
2022-12-31T05:46:01.939Z,100298.34
2022-12-31T05:48:30.251Z,100302.31
2022-12-31T05:50:58.167Z,100307.31
2022-12-31T05:53:26.038Z,100307.56
2022-12-31T05:55:53.713Z,100312.88
2022-12-31T05:58:21.396Z,100310.44
2022-12-31T06:00:49.355Z,100316.81
2022-12-31T06:03:17.804Z,100309.19
2022-12-31T06:05:45.481Z,100297.41
2022-12-31T06:08:13.201Z,100303.47
2022-12-31T06:10:41.126Z,100318.41
2022-12-31T06:13:08.740Z,100310.53
2022-12-31T06:15:38.440Z,100309.81
2022-12-31T06:18:07.159Z,100308.53
2022-12-31T06:20:37.896Z,100311.78
2022-12-31T06:23:06.102Z,100317.31
2022-12-31T06:25:35.341Z,100327.00
2022-12-31T06:28:04.790Z,100325.00
2022-12-31T06:30:32.918Z,100333.94
2022-12-31T06:33:00.608Z,100338.34
2022-12-31T06:35:28.295Z,100333.25
2022-12-31T06:37:56.566Z,100329.22
2022-12-31T06:40:24.507Z,100330.38
2022-12-31T06:42:57.770Z,100329.00
2022-12-31T06:45:27.830Z,100336.59
2022-12-31T06:47:55.538Z,100338.13
2022-12-31T06:50:23.206Z,100340.78
2022-12-31T06:52:51.128Z,100344.16
2022-12-31T06:55:19.256Z,100344.69
2022-12-31T06:57:47.265Z,100349.22
2022-12-31T07:00:16.259Z,100361.78
2022-12-31T07:03:08.727Z,100364.53
2022-12-31T07:05:57.538Z,100366.72
2022-12-31T07:09:00.364Z,100361.88
2022-12-31T07:11:32.469Z,100359.81
2022-12-31T07:14:18.880Z,100356.91
2022-12-31T07:17:33.230Z,100365.50
2022-12-31T07:20:06.566Z,100365.69
2022-12-31T07:22:36.516Z,100367.22
2022-12-31T07:25:05.226Z,100376.81
2022-12-31T07:27:38.932Z,100381.88
2022-12-31T07:30:13.937Z,100380.44
2022-12-31T07:33:02.688Z,100375.53
2022-12-31T07:35:42.776Z,100378.25
2022-12-31T07:38:34.758Z,100384.31
2022-12-31T07:41:29.108Z,100392.75
2022-12-31T07:44:23.529Z,100392.19
2022-12-31T07:47:00.444Z,100397.88
2022-12-31T07:49:29.808Z,100392.38
2022-12-31T07:51:58.178Z,100379.09
2022-12-31T07:54:25.891Z,100376.97
2022-12-31T07:56:53.478Z,100388.12
2022-12-31T07:59:51.775Z,100390.31
2022-12-31T08:02:58.569Z,100389.97
2022-12-31T08:05:34.140Z,100407.34
2022-12-31T08:08:22.616Z,100407.59
2022-12-31T08:10:53.455Z,100409.13
2022-12-31T08:13:21.148Z,100406.47
2022-12-31T08:15:50.300Z,100399.75
2022-12-31T08:18:18.731Z,100396.28
2022-12-31T08:21:12.482Z,100392.00
2022-12-31T08:24:00.459Z,100392.72
2022-12-31T08:26:27.981Z,100395.56
2022-12-31T08:29:15.036Z,100397.81
2022-12-31T08:32:24.270Z,100405.50
2022-12-31T08:34:59.233Z,100407.69
2022-12-31T08:37:44.616Z,100413.97
2022-12-31T08:40:24.519Z,100419.75
2022-12-31T08:43:13.405Z,100416.66
2022-12-31T08:45:52.168Z,100428.16
2022-12-31T08:48:34.667Z,100425.97
2022-12-31T08:51:03.178Z,100437.06
2022-12-31T08:53:33.153Z,100450.16
2022-12-31T08:56:07.208Z,100453.72
2022-12-31T08:58:39.200Z,100459.47
2022-12-31T09:01:08.013Z,100472.78
2022-12-31T09:04:07.960Z,100457.66
2022-12-31T09:06:48.400Z,100468.19
2022-12-31T09:09:34.641Z,100481.88
2022-12-31T09:12:16.232Z,100484.91
2022-12-31T09:14:45.127Z,100481.66
2022-12-31T09:17:24.903Z,100481.06
2022-12-31T09:19:53.230Z,100492.81
2022-12-31T09:22:20.998Z,100487.13
2022-12-31T09:24:48.974Z,100475.84
2022-12-31T09:27:38.321Z,100470.94
2022-12-31T09:30:09.985Z,100463.75
2022-12-31T09:33:05.911Z,100461.38
2022-12-31T09:35:35.599Z,100470.59
2022-12-31T09:38:12.169Z,100475.62
2022-12-31T09:40:45.835Z,100454.25
2022-12-31T09:43:33.897Z,100461.88
2022-12-31T09:46:19.089Z,100452.78
2022-12-31T09:49:19.455Z,100458.91
2022-12-31T09:51:56.061Z,100463.03
2022-12-31T09:54:30.228Z,100455.84
2022-12-31T09:57:07.251Z,100458.59
2022-12-31T09:59:41.313Z,100458.31
2022-12-31T10:02:46.758Z,100449.16
2022-12-31T10:05:26.708Z,100435.44
2022-12-31T10:08:27.009Z,100424.59
2022-12-31T10:10:58.711Z,100419.19
2022-12-31T10:13:41.395Z,100412.66
2022-12-31T10:16:20.608Z,100405.34
2022-12-31T10:18:54.331Z,100392.84
2022-12-31T10:21:51.897Z,100401.28
2022-12-31T10:24:38.386Z,100416.97
2022-12-31T10:27:19.703Z,100417.44
2022-12-31T10:30:13.315Z,100425.59
2022-12-31T10:32:58.701Z,100417.31
2022-12-31T10:35:31.599Z,100410.81
2022-12-31T10:38:28.865Z,100397.47
2022-12-31T10:41:08.917Z,100418.66
2022-12-31T10:43:51.515Z,100411.28
2022-12-31T10:46:53.901Z,100431.56
2022-12-31T10:49:46.244Z,100432.41
2022-12-31T10:52:27.588Z,100422.41
2022-12-31T10:55:34.966Z,100425.53
2022-12-31T10:58:40.261Z,100443.78
2022-12-31T11:01:26.412Z,100449.97
2022-12-31T11:04:02.993Z,100447.81
2022-12-31T11:06:46.090Z,100439.31
2022-12-31T11:09:42.909Z,100441.50
2022-12-31T11:12:38.473Z,100434.16
2022-12-31T11:15:36.050Z,100400.22
2022-12-31T11:18:30.577Z,100393.22
2022-12-31T11:21:02.769Z,100402.78
2022-12-31T11:23:58.162Z,100403.63
2022-12-31T11:26:47.526Z,100397.19
2022-12-31T11:29:40.120Z,100416.41
2022-12-31T11:32:28.299Z,100399.75
2022-12-31T11:35:20.871Z,100413.41
2022-12-31T11:38:19.001Z,100408.12
2022-12-31T11:40:56.723Z,100398.22
2022-12-31T11:44:03.361Z,100392.41
2022-12-31T11:46:34.280Z,100405.50
2022-12-31T11:49:23.345Z,100407.94
2022-12-31T11:52:09.065Z,100404.62
2022-12-31T11:54:53.495Z,100400.31
2022-12-31T11:57:34.518Z,100415.09
2022-12-31T12:00:06.753Z,100407.34
2022-12-31T12:02:45.977Z,100424.63
2022-12-31T12:05:15.798Z,100424.84
2022-12-31T12:07:45.298Z,100405.41
2022-12-31T12:10:36.137Z,100398.31
2022-12-31T12:13:16.655Z,100386.94
2022-12-31T12:15:50.978Z,100397.84
2022-12-31T12:18:48.449Z,100394.50
2022-12-31T12:21:18.369Z,100393.75
2022-12-31T12:24:14.511Z,100399.37
2022-12-31T12:26:43.958Z,100408.53
2022-12-31T12:29:14.559Z,100403.44
2022-12-31T12:31:42.734Z,100412.81
2022-12-31T12:45:16.940Z,100420.94
2022-12-31T12:47:46.759Z,100420.94
2022-12-31T12:50:17.412Z,100427.75
2022-12-31T12:52:59.559Z,100420.47
2022-12-31T12:55:41.959Z,100424.53
2022-12-31T12:58:47.351Z,100416.22
2022-12-31T13:01:33.516Z,100408.66
2022-12-31T13:07:03.306Z,100403.41
2022-12-31T13:09:52.775Z,100400.59
2022-12-31T13:13:05.300Z,100399.00
2022-12-31T13:15:44.154Z,100396.09
2022-12-31T13:18:37.825Z,100404.97
2022-12-31T13:21:14.318Z,100403.06
2022-12-31T13:23:50.041Z,100411.69
2022-12-31T13:26:26.273Z,100396.97
2022-12-31T13:28:58.671Z,100407.47
2022-12-31T13:31:40.269Z,100414.66
2022-12-31T13:34:12.463Z,100415.22
2022-12-31T13:36:44.384Z,100415.00
2022-12-31T13:39:27.393Z,100417.13
2022-12-31T13:42:07.601Z,100415.81
2022-12-31T13:44:51.979Z,100426.81
2022-12-31T13:47:33.108Z,100432.97
2022-12-31T13:50:14.780Z,100425.88
2022-12-31T13:53:03.315Z,100431.00
2022-12-31T13:55:34.591Z,100427.37
2022-12-31T13:58:21.002Z,100425.53
2022-12-31T14:00:53.264Z,100413.56
2022-12-31T14:03:51.999Z,100405.44
2022-12-31T14:06:56.449Z,100411.91
2022-12-31T14:09:29.502Z,100426.94
2022-12-31T14:12:21.690Z,100425.09
2022-12-31T14:15:05.211Z,100430.19
2022-12-31T14:17:51.315Z,100439.28
2022-12-31T14:20:22.012Z,100440.44
2022-12-31T14:23:12.933Z,100446.38
2022-12-31T14:25:50.570Z,100442.91
2022-12-31T14:28:59.288Z,100448.00
2022-12-31T14:31:48.676Z,100446.38
2022-12-31T14:34:24.347Z,100434.06
2022-12-31T14:36:57.655Z,100424.94
2022-12-31T14:39:45.269Z,100426.81
2022-12-31T14:42:22.044Z,100439.44
2022-12-31T14:44:58.258Z,100432.16
2022-12-31T14:47:41.134Z,100440.25
2022-12-31T14:50:10.237Z,100449.06
2022-12-31T14:52:48.977Z,100453.34
2022-12-31T14:55:28.172Z,100442.88
2022-12-31T15:00:55.937Z,100432.97
2022-12-31T15:03:31.546Z,100435.66
2022-12-31T15:06:17.315Z,100435.34
2022-12-31T15:09:08.454Z,100430.56
2022-12-31T15:11:47.862Z,100418.19
2022-12-31T15:14:18.228Z,100417.91
2022-12-31T15:16:48.264Z,100421.13
2022-12-31T15:19:18.913Z,100421.38
2022-12-31T15:21:52.691Z,100430.78
2022-12-31T15:24:23.894Z,100437.41
2022-12-31T15:26:54.012Z,100442.19
2022-12-31T15:29:33.460Z,100445.97
2022-12-31T15:32:04.171Z,100442.19
2022-12-31T15:34:34.592Z,100442.97
2022-12-31T15:37:07.129Z,100453.09
2022-12-31T15:39:34.523Z,100441.13
2022-12-31T15:44:53.497Z,100447.84
2022-12-31T15:47:34.681Z,100457.78
2022-12-31T15:50:03.729Z,100460.50
2022-12-31T15:52:39.176Z,100458.56
2022-12-31T15:55:07.040Z,100447.72
2022-12-31T15:57:39.206Z,100450.97
2022-12-31T16:00:14.528Z,100455.00
2022-12-31T16:02:42.192Z,100451.50
2022-12-31T16:05:25.241Z,100453.63
2022-12-31T16:07:54.498Z,100448.56
2022-12-31T16:10:25.649Z,100461.44
2022-12-31T16:12:56.474Z,100455.28
2022-12-31T16:15:34.126Z,100452.06
2022-12-31T16:18:09.434Z,100449.06
2022-12-31T16:20:42.224Z,100435.88
2022-12-31T16:23:26.555Z,100445.44
2022-12-31T16:25:56.281Z,100450.87
2022-12-31T16:28:28.379Z,100459.09
2022-12-31T16:31:03.137Z,100454.25
2022-12-31T16:33:32.306Z,100457.75
2022-12-31T16:36:03.891Z,100462.84
2022-12-31T16:38:37.800Z,100457.56
2022-12-31T16:41:17.433Z,100444.03
2022-12-31T16:43:46.869Z,100445.97
2022-12-31T16:46:29.025Z,100448.44
2022-12-31T16:49:05.323Z,100447.41
2022-12-31T16:51:34.149Z,100456.56
2022-12-31T16:54:02.434Z,100452.47
2022-12-31T16:56:37.761Z,100459.66
2022-12-31T16:59:27.216Z,100448.13
2022-12-31T17:01:59.785Z,100460.44
2022-12-31T17:04:27.584Z,100476.31
2022-12-31T17:06:54.822Z,100490.69
2022-12-31T17:09:31.670Z,100484.81
2022-12-31T17:12:15.158Z,100481.84
2022-12-31T17:14:50.175Z,100467.91
2022-12-31T17:17:25.919Z,100473.78
2022-12-31T17:19:58.068Z,100466.47
2022-12-31T17:22:34.368Z,100466.34
2022-12-31T17:25:06.743Z,100454.97
2022-12-31T17:27:37.929Z,100464.56
2022-12-31T17:30:28.717Z,100475.16
2022-12-31T17:33:03.435Z,100480.38
2022-12-31T17:35:33.372Z,100485.47
2022-12-31T17:38:30.984Z,100492.69
2022-12-31T17:41:09.427Z,100477.16
2022-12-31T17:43:37.963Z,100476.25
2022-12-31T17:46:14.337Z,100478.25
2022-12-31T17:48:42.985Z,100491.09
2022-12-31T17:51:10.201Z,100488.97
2022-12-31T17:53:37.454Z,100498.59
2022-12-31T17:56:06.828Z,100503.69
2022-12-31T17:58:53.384Z,100503.59
2022-12-31T18:01:22.840Z,100495.84
2022-12-31T18:03:50.475Z,100496.09
2022-12-31T18:06:17.985Z,100497.94
2022-12-31T18:08:45.260Z,100494.78
2022-12-31T18:11:18.926Z,100499.38
2022-12-31T18:13:46.368Z,100506.59
2022-12-31T18:16:14.081Z,100508.47
2022-12-31T18:18:41.463Z,100499.59
2022-12-31T18:21:22.024Z,100492.91
2022-12-31T18:23:50.385Z,100497.00
2022-12-31T18:26:20.058Z,100490.59
2022-12-31T18:28:48.898Z,100495.66
2022-12-31T18:31:22.471Z,100487.28
2022-12-31T18:33:51.323Z,100486.25
2022-12-31T18:36:20.483Z,100487.66
2022-12-31T18:38:48.289Z,100486.38
2022-12-31T18:41:20.478Z,100494.72
2022-12-31T18:43:48.594Z,100500.94
2022-12-31T18:46:18.347Z,100486.94
2022-12-31T18:48:48.994Z,100495.50
2022-12-31T18:51:18.964Z,100490.25
2022-12-31T18:53:46.227Z,100506.06
2022-12-31T18:56:16.418Z,100509.00
2022-12-31T18:58:44.696Z,100517.31
2022-12-31T19:01:26.758Z,100515.44
2022-12-31T19:04:10.668Z,100516.47
2022-12-31T19:06:41.252Z,100515.44
2022-12-31T19:09:30.412Z,100519.25
2022-12-31T19:11:56.498Z,100517.94
2022-12-31T19:14:24.752Z,100515.25
2022-12-31T19:16:53.532Z,100510.69
2022-12-31T19:19:20.934Z,100504.00
2022-12-31T19:21:48.940Z,100514.19
2022-12-31T19:24:19.086Z,100517.94
2022-12-31T19:26:46.685Z,100510.69
2022-12-31T19:29:17.049Z,100506.66
2022-12-31T19:31:44.835Z,100505.81
2022-12-31T19:34:12.288Z,100515.69
2022-12-31T19:36:44.027Z,100510.34
2022-12-31T19:39:17.223Z,100510.06
2022-12-31T19:41:45.519Z,100511.94
2022-12-31T19:44:17.026Z,100509.50
2022-12-31T19:46:45.253Z,100515.41
2022-12-31T19:49:13.476Z,100516.91
2022-12-31T19:51:41.062Z,100513.69
2022-12-31T19:54:08.635Z,100512.63
2022-12-31T19:56:35.882Z,100514.25
2022-12-31T19:59:07.675Z,100509.41
2022-12-31T20:01:35.238Z,100520.31
2022-12-31T20:04:02.948Z,100518.91
2022-12-31T20:06:31.080Z,100516.78
2022-12-31T20:08:59.336Z,100516.78
2022-12-31T20:11:27.537Z,100507.56
2022-12-31T20:13:55.261Z,100500.88
2022-12-31T20:16:24.678Z,100502.75
2022-12-31T20:18:52.793Z,100497.31
2022-12-31T20:21:23.148Z,100493.31
2022-12-31T20:23:52.999Z,100498.00
2022-12-31T20:26:22.396Z,100500.66
2022-12-31T20:28:50.334Z,100507.16
2022-12-31T20:31:21.355Z,100516.88
2022-12-31T20:33:48.994Z,100512.63
2022-12-31T20:36:17.425Z,100514.69
2022-12-31T20:38:45.889Z,100511.44
2022-12-31T20:41:16.338Z,100512.97
2022-12-31T20:43:44.564Z,100510.47
2022-12-31T20:46:20.513Z,100505.75
2022-12-31T20:48:49.721Z,100497.38
2022-12-31T20:51:18.656Z,100495.78
2022-12-31T20:53:47.979Z,100501.44
2022-12-31T20:56:16.355Z,100493.09
2022-12-31T20:58:45.827Z,100487.22
2022-12-31T21:01:18.661Z,100484.00
2022-12-31T21:04:05.766Z,100497.34
2022-12-31T21:06:35.467Z,100495.22
2022-12-31T21:09:06.182Z,100502.16
2022-12-31T21:11:34.508Z,100495.22
2022-12-31T21:14:02.360Z,100492.00
2022-12-31T21:16:33.082Z,100485.03
2022-12-31T21:19:00.687Z,100480.09
2022-12-31T21:21:28.529Z,100485.19
2022-12-31T21:23:58.605Z,100476.44
2022-12-31T21:26:26.274Z,100485.03
2022-12-31T21:28:54.204Z,100490.44
2022-12-31T21:31:22.609Z,100485.84
2022-12-31T21:33:50.205Z,100495.09
2022-12-31T21:36:17.774Z,100506.03
2022-12-31T21:38:45.634Z,100507.97
2022-12-31T21:41:16.685Z,100514.31
2022-12-31T21:43:44.711Z,100517.69
2022-12-31T21:46:12.660Z,100521.72
2022-12-31T21:48:40.529Z,100528.63
2022-12-31T21:51:11.853Z,100526.44
2022-12-31T21:53:40.667Z,100539.59
2022-12-31T21:56:09.354Z,100527.25
2022-12-31T21:58:39.029Z,100535.44
2022-12-31T22:01:15.544Z,100531.44
2022-12-31T22:03:44.728Z,100537.34
2022-12-31T22:06:15.454Z,100540.03
2022-12-31T22:08:44.898Z,100530.12
2022-12-31T22:11:13.500Z,100534.84
2022-12-31T22:13:41.692Z,100542.19
2022-12-31T22:16:09.748Z,100540.53
2022-12-31T22:18:39.196Z,100534.41
2022-12-31T22:21:10.784Z,100536.75
2022-12-31T22:23:41.973Z,100534.16
2022-12-31T22:26:12.860Z,100540.53
2022-12-31T22:28:42.564Z,100536.75
2022-12-31T22:31:14.463Z,100536.47
2022-12-31T22:33:43.037Z,100536.91
2022-12-31T22:36:15.256Z,100538.25
2022-12-31T22:38:43.530Z,100537.66
2022-12-31T22:41:19.654Z,100533.38
2022-12-31T22:43:49.398Z,100525.19
2022-12-31T22:46:21.075Z,100522.59
2022-12-31T22:48:49.130Z,100513.53
2022-12-31T22:51:17.732Z,100513.00
2022-12-31T22:53:45.814Z,100507.78
2022-12-31T22:56:16.095Z,100519.78
2022-12-31T22:58:44.811Z,100507.00
2022-12-31T23:01:18.809Z,100510.34
2022-12-31T23:03:47.090Z,100507.28
2022-12-31T23:06:15.019Z,100514.97
2022-12-31T23:08:42.774Z,100504.72
2022-12-31T23:11:10.771Z,100494.59
2022-12-31T23:13:45.912Z,100490.22
2022-12-31T23:16:18.359Z,100486.19
2022-12-31T23:18:46.197Z,100493.03
2022-12-31T23:21:13.978Z,100495.25
2022-12-31T23:23:47.113Z,100493.69
2022-12-31T23:26:14.695Z,100514.19
2022-12-31T23:28:42.593Z,100499.69
2022-12-31T23:31:10.525Z,100497.19
2022-12-31T23:33:38.580Z,100503.78
2022-12-31T23:36:07.258Z,100510.84
2022-12-31T23:38:35.029Z,100511.41
2022-12-31T23:41:15.167Z,100515.72
2022-12-31T23:43:43.090Z,100516.84
2022-12-31T23:46:11.839Z,100512.81
2022-12-31T23:48:39.825Z,100528.94
2022-12-31T23:51:07.671Z,100521.06
2022-12-31T23:53:37.784Z,100517.75
2022-12-31T23:56:23.013Z,100524.75
2022-12-31T23:58:55.843Z,100522.00
